D/T METAR WX W/DIR W/SPE G/SPE TEMP DEWP
25/02/20 15:20 EGAC 251520Z 25008KT 220V300 9999 -RADZ SCT013 03/02 Q0992 RERA REDZ -RA -DZ WSW (250°) 9.2mph 3°C 2°C
25/02/20 14:50 EGAC 251450Z AUTO 26011KT 9999 -RA SCT021/// BKN036/// 04/02 Q0992 -RA W (260°) 12.7mph 4°C 2°C
25/02/20 14:20 EGAC 251420Z AUTO 26010KT 220V290 9999 FEW027/// 06/01 Q0992 W (260°) 11.5mph 6°C 1°C
25/02/20 13:20 EGAC 251320Z AUTO 24011KT 220V280 9999 SCT026/// BKN036/// 05/02 Q0993 WSW (240°) 12.7mph 5°C 2°C
25/02/20 12:50 EGAC 251250Z AUTO 25012KT 9999 SCT023/// BKN029/// 05/01 Q0994 WSW (250°) 13.8mph 5°C 1°C
25/02/20 12:20 EGAC 251220Z AUTO 24011KT 9999 BKN020/// BKN025/// 05/02 Q0994 WSW (240°) 12.7mph 5°C 2°C
25/02/20 11:50 EGAC 251150Z AUTO 23011KT 9999 BKN019/// 05/02 Q0994 SW (230°) 12.7mph 5°C 2°C
25/02/20 10:50 EGAC 251050Z AUTO 25011KT 9999 BKN016/// 04/02 Q0994 WSW (250°) 12.7mph 4°C 2°C
25/02/20 10:20 EGAC 251020Z AUTO 23013KT 9999 SCT014/// BKN019/// 04/01 Q0995 SW (230°) 15.0mph 4°C 1°C
25/02/20 09:50 EGAC 250950Z AUTO 24011KT 9999 BKN015/// 03/01 Q0995 WSW (240°) 12.7mph 3°C 1°C
25/02/20 09:20 EGAC 250920Z AUTO 23010KT 9999 SCT013/// 03/01 Q0995 SW (230°) 11.5mph 3°C 1°C
25/02/20 08:50 EGAC 250850Z AUTO 20011KT 9999 BKN013/// 03/01 Q0995 SSW (200°) 12.7mph 3°C 1°C
25/02/20 08:20 EGAC 250820Z AUTO 19011KT 9999 BKN012/// 02/01 Q0996 S (190°) 12.7mph 2°C 1°C
25/02/20 07:50 EGAC 250750Z AUTO 20009KT 9999 BKN012/// BKN016/// 02/01 Q0996 SSW (200°) 10.4mph 2°C 1°C
25/02/20 07:20 EGAC 250720Z AUTO 22011KT 9999 SCT013/// 02/01 Q0996 SW (220°) 12.7mph 2°C 1°C
25/02/20 06:50 EGAC 250650Z AUTO 21009KT 180V240 9999 BKN012/// BKN017/// 02/01 Q0996 SSW (210°) 10.4mph 2°C 1°C
25/02/20 05:50 EGAC 250550Z AUTO 20008KT 170V250 9999 OVC012/// 03/01 Q0996 SSW (200°) 9.2mph 3°C 1°C
25/02/20 05:20 EGAC 250520Z AUTO 22010KT 190V260 9999 OVC013/// 03/01 Q0997 SW (220°) 11.5mph 3°C 1°C
25/02/20 04:50 EGAC 250450Z AUTO 22009KT 9999 OVC012/// 03/01 Q0997 SW (220°) 10.4mph 3°C 1°C
25/02/20 04:20 EGAC 250420Z AUTO 22012KT 9999 BKN011/// OVC023/// 03/02 Q0997 SW (220°) 13.8mph 3°C 2°C
25/02/20 03:50 EGAC 250350Z AUTO 22010KT 9999 -RA BKN013/// BKN018/// 03/02 Q0998 -RA SW (220°) 11.5mph 3°C 2°C
25/02/20 03:20 EGAC 250320Z AUTO 21011KT 9999 -RA BKN012/// BKN018/// OVC035/// 03/02 Q0998 -RA SSW (210°) 12.7mph 3°C 2°C
25/02/20 02:50 EGAC 250250Z AUTO 20010KT 9999 -RA BKN014/// BKN021/// BKN038/// 03/01 Q0998 -RA SSW (200°) 11.5mph 3°C 1°C
25/02/20 02:20 EGAC 250220Z AUTO 19009KT 9999 SCT019/// SCT049/// 02/01 Q0999 S (190°) 10.4mph 2°C 1°C
25/02/20 01:50 EGAC 250150Z AUTO 18007KT 160V220 9999 SCT014/// BKN027/// 02/01 Q0999 S (180°) 8.1mph 2°C 1°C
25/02/20 01:20 EGAC 250120Z AUTO 19008KT 9999 BKN013/// BKN030/// 03/01 Q0999 S (190°) 9.2mph 3°C 1°C
25/02/20 00:50 EGAC 250050Z AUTO 21010KT 9999 BKN015/// 03/01 Q1000 SSW (210°) 11.5mph 3°C 1°C
25/02/20 00:20 EGAC 250020Z AUTO 22010KT 190V260 9999 BKN017/// 03/02 Q1000 SW (220°) 11.5mph 3°C 2°C
24/02/20 23:50 EGAC 242350Z AUTO 24011KT 9999 NCD 04/02 Q1000 WSW (240°) 12.7mph 4°C 2°C
24/02/20 23:20 EGAC 242320Z AUTO 24012KT 9999 NCD 04/01 Q1000 WSW (240°) 13.8mph 4°C 1°C
24/02/20 22:20 EGAC 242220Z AUTO 25010KT 9999 NCD 04/01 Q1000 WSW (250°) 11.5mph 4°C 1°C
24/02/20 21:50 EGAC 242150Z AUTO 24014KT 9999 NCD 04/02 Q1001 WSW (240°) 16.1mph 4°C 2°C
24/02/20 21:20 EGAC 242120Z AUTO 25011KT 9999 NCD 04/01 Q1001 WSW (250°) 12.7mph 4°C 1°C
24/02/20 20:50 EGAC 242050Z AUTO 25012KT 220V290 9999 NCD 04/02 Q1001 WSW (250°) 13.8mph 4°C 2°C
24/02/20 20:20 EGAC 242020Z AUTO 25012KT 9999 NCD 04/02 Q1001 WSW (250°) 13.8mph 4°C 2°C
24/02/20 19:50 EGAC 241950Z AUTO 26010KT 230V300 9999 NCD 04/02 Q1001 W (260°) 11.5mph 4°C 2°C
24/02/20 19:20 EGAC 241920Z AUTO 26011KT 230V300 9999 FEW025/// 05/02 Q1001 W (260°) 12.7mph 5°C 2°C
24/02/20 18:50 EGAC 241850Z AUTO 27013KT 230V290 9999 NCD 05/02 Q1000 W (270°) 15.0mph 5°C 2°C
24/02/20 18:20 EGAC 241820Z AUTO 27012KT 9999 BKN026/// 05/03 Q1000 W (270°) 13.8mph 5°C 3°C
24/02/20 17:50 EGAC 241750Z AUTO 27011KT 9999 SCT024/// 05/03 Q1000 W (270°) 12.7mph 5°C 3°C
24/02/20 17:20 EGAC 241720Z AUTO 27012KT 9999 BKN028/// 06/03 Q1000 W (270°) 13.8mph 6°C 3°C
24/02/20 16:50 EGAC 241650Z AUTO 27014KT 240V310 9999 NCD 06/02 Q0999 W (270°) 16.1mph 6°C 2°C
24/02/20 15:50 EGAC 241550Z AUTO 28015G25KT 9999 FEW033/// 06/03 Q0998 W (280°) 17.3mph 28.8mph 6°C 3°C
24/02/20 15:20 EGAC 241520Z AUTO 27018G29KT 9999 NCD 06/03 Q0997 W (270°) 20.7mph 33.4mph 6°C 3°C
24/02/20 14:50 EGAC 241450Z AUTO 26020G36KT 9999 FEW022/// SCT026/// 06/03 Q0997 W (260°) 23.0mph 41.4mph 6°C 3°C
24/02/20 14:20 EGAC 241420Z AUTO 26021G33KT 9999 SCT018/// BKN022/// BKN027/// 06/03 Q0996 W (260°) 24.2mph 38.0mph 6°C 3°C
24/02/20 13:50 EGAC 241350Z AUTO 25015G28KT 7000 FEW019/// SCT024/// OVC030/// 06/04 Q0996 WSW (250°) 17.3mph 32.2mph 6°C 4°C
24/02/20 13:20 EGAC 241320Z AUTO 24020G31KT 9999 -RA SCT013/// BKN018/// OVC027/// 06/04 Q0996 -RA WSW (240°) 23.0mph 35.7mph 6°C 4°C